Washington, West Virginia
Current Conditions -  °F | °C
As of 8:53 AM on Monday 24 Nov 2014 (Local Time) from KPKB Reporting Station
Clear Clear  
Wind Chill: 65°   Ceiling: Unl
Heat Index: 65°   Visibility: 10mi
Dew Point: 50°   Wind: 14mph
Humidity: 58%   Direction: 180°S
Pressure: 29.47"   Gusts: 29mph
Location:  39.24°N, 81.67°W
Report Text: KPKB 241353Z 18012G25KT 10SM CLR 18/10 A2947 RMK AO2 SLP976 T01830100
Loading
Personal Weather Stations






























Interactive Weather Map New forecast layout! Learn more

10-Day Weather Forecast

Advertisements
Track Severe Weather on mobile